createdAt,value
2023-05-19T00:05:03.658Z,1.10
2023-05-19T00:12:38.583Z,1.30
2023-05-19T00:27:48.302Z,1.50
2023-05-19T00:35:24.655Z,1.33
2023-05-19T00:42:58.476Z,1.55
2023-05-19T00:50:34.467Z,1.23
2023-05-19T00:58:10.676Z,1.65
2023-05-19T01:05:45.950Z,1.20
2023-05-19T01:13:19.861Z,1.33
2023-05-19T01:21:05.814Z,1.20
2023-05-19T01:29:13.985Z,1.15
2023-05-19T01:36:50.381Z,1.38
2023-05-19T01:44:25.264Z,1.52
2023-05-19T01:52:00.594Z,1.40
2023-05-19T01:59:44.800Z,1.42
2023-05-19T02:07:28.081Z,1.58
2023-05-19T02:15:07.375Z,1.60
2023-05-19T02:22:42.913Z,2.22
2023-05-19T02:30:16.942Z,1.80
2023-05-19T02:37:52.536Z,1.93
2023-05-19T02:45:28.618Z,1.98
2023-05-19T02:53:05.319Z,1.30
2023-05-19T03:00:39.247Z,1.27
2023-05-19T03:08:14.632Z,1.67
2023-05-19T03:15:48.948Z,1.63
2023-05-19T03:23:24.192Z,1.20
2023-05-19T03:30:58.032Z,1.40
2023-05-19T03:38:33.282Z,2.00
2023-05-19T03:46:07.245Z,1.25
2023-05-19T03:53:42.542Z,1.50
2023-05-19T04:01:16.569Z,1.20
2023-05-19T04:08:51.985Z,1.53
2023-05-19T04:16:25.954Z,1.40
2023-05-19T04:24:01.268Z,1.47
2023-05-19T04:31:36.098Z,1.05
2023-05-19T04:39:12.365Z,1.10
2023-05-19T04:46:46.265Z,1.75
2023-05-19T04:54:21.573Z,1.83
2023-05-19T05:01:56.279Z,1.67
2023-05-19T05:09:31.698Z,1.40
2023-05-19T05:17:06.090Z,1.58
2023-05-19T05:24:42.073Z,2.03
2023-05-19T05:32:17.213Z,2.92
2023-05-19T05:39:52.798Z,1.92
2023-05-19T05:47:27.608Z,1.98
2023-05-19T05:55:03.745Z,2.22
2023-05-19T06:02:38.296Z,3.33
2023-05-19T06:10:13.850Z,2.38
2023-05-19T06:17:47.794Z,2.22
2023-05-19T06:25:24.755Z,2.80
2023-05-19T06:32:59.125Z,2.45
2023-05-19T06:40:34.488Z,2.47
2023-05-19T06:48:08.546Z,2.15
2023-05-19T06:55:57.338Z,1.70
2023-05-19T07:03:32.503Z,2.13
2023-05-19T07:11:07.863Z,2.60
2023-05-19T07:18:41.761Z,1.90
2023-05-19T07:26:17.076Z,2.42
2023-05-19T07:33:53.020Z,2.20
2023-05-19T07:41:29.770Z,2.42
2023-05-19T07:49:05.550Z,2.65
2023-05-19T08:05:34.014Z,2.15
2023-05-19T08:13:07.880Z,2.17
2023-05-19T08:20:43.149Z,2.17
2023-05-19T08:28:17.038Z,2.10
2023-05-19T08:35:52.416Z,2.33
2023-05-19T08:43:26.613Z,1.95
2023-05-19T08:51:11.033Z,2.30
2023-05-19T08:58:46.017Z,1.77
2023-05-19T09:13:55.184Z,2.27
2023-05-19T09:21:32.095Z,1.80
2023-05-19T09:29:12.449Z,1.50
2023-05-19T09:36:50.703Z,1.65
2023-05-19T09:44:28.979Z,1.02
2023-05-19T09:52:22.509Z,1.65
2023-05-19T09:59:58.035Z,1.20
2023-05-19T10:07:34.108Z,1.10
2023-05-19T10:15:11.406Z,1.10
2023-05-19T10:22:48.630Z,1.33
2023-05-19T10:30:28.022Z,1.00
2023-05-19T10:38:14.901Z,1.25
2023-05-19T10:45:50.241Z,1.20
2023-05-19T10:53:32.459Z,1.33
2023-05-19T11:01:09.945Z,1.30
2023-05-19T11:08:45.341Z,1.75
2023-05-19T11:16:20.859Z,1.10
2023-05-19T11:23:58.071Z,0.98
2023-05-19T11:31:33.879Z,1.00
2023-05-19T11:39:10.592Z,1.00
2023-05-19T11:46:44.838Z,1.55
2023-05-19T11:54:20.278Z,0.83
2023-05-19T12:01:54.144Z,1.00
2023-05-19T12:09:30.926Z,1.25
2023-05-19T12:17:12.234Z,1.20
2023-05-19T12:24:49.076Z,1.00
2023-05-19T12:32:25.389Z,1.20
2023-05-19T12:40:30.639Z,1.90
2023-05-19T12:48:06.606Z,1.55
2023-05-19T12:55:43.400Z,1.10
2023-05-19T13:03:18.774Z,1.30
2023-05-19T13:10:55.994Z,1.48
2023-05-19T13:18:32.250Z,1.40
2023-05-19T13:26:07.851Z,1.50
2023-05-19T13:33:41.847Z,1.17
2023-05-19T13:41:18.508Z,1.27
2023-05-19T13:48:52.556Z,1.30
2023-05-19T13:56:28.310Z,1.15
2023-05-19T14:04:02.748Z,1.20
2023-05-19T14:11:38.510Z,1.40
2023-05-19T14:27:05.451Z,1.88
2023-05-19T14:34:39.392Z,1.73
2023-05-19T14:42:14.970Z,1.60
2023-05-19T14:49:48.949Z,1.50
2023-05-19T15:05:16.502Z,1.40
2023-05-19T15:12:52.090Z,1.77
2023-05-19T15:20:27.443Z,1.58
2023-05-19T15:28:04.932Z,1.38
2023-05-19T15:35:38.903Z,1.58
2023-05-19T15:43:14.472Z,1.30
2023-05-19T15:50:54.724Z,1.75
2023-05-19T15:58:30.177Z,1.30
2023-05-19T16:06:04.235Z,1.40
2023-05-19T16:13:39.737Z,1.67
2023-05-19T16:21:13.742Z,1.58
2023-05-19T16:28:48.945Z,1.77
2023-05-19T16:36:23.533Z,1.50
2023-05-19T16:43:58.992Z,1.15
2023-05-19T16:51:33.002Z,1.42
2023-05-19T16:59:10.108Z,2.10
2023-05-19T17:06:46.916Z,1.58
2023-05-19T17:14:22.436Z,1.23
2023-05-19T17:21:56.378Z,1.65
2023-05-19T17:29:31.674Z,1.60
2023-05-19T17:44:58.492Z,1.50
2023-05-19T17:52:33.138Z,1.30
2023-05-19T18:00:10.663Z,1.80
2023-05-19T18:07:45.587Z,1.73
2023-05-19T18:15:21.025Z,1.77
2023-05-19T18:22:54.920Z,1.58
2023-05-19T18:30:30.181Z,1.98
2023-05-19T18:38:04.325Z,1.55
2023-05-19T18:45:39.847Z,1.42
2023-05-19T18:53:13.614Z,1.58
2023-05-19T19:00:48.798Z,2.00
2023-05-19T19:08:22.692Z,2.05
2023-05-19T19:15:57.948Z,1.75
2023-05-19T19:23:31.726Z,2.60
2023-05-19T19:31:07.064Z,2.70
2023-05-19T19:38:40.976Z,2.47
2023-05-19T19:46:16.183Z,2.30
2023-05-19T19:53:50.201Z,2.30
2023-05-19T20:01:27.438Z,2.35
2023-05-19T20:09:01.430Z,2.42
2023-05-19T20:16:36.615Z,2.30
2023-05-19T20:24:10.357Z,1.92
2023-05-19T20:31:46.557Z,2.28
2023-05-19T20:39:20.661Z,2.10
2023-05-19T20:46:55.805Z,1.92
2023-05-19T20:54:29.705Z,2.40
2023-05-19T21:02:06.218Z,2.20
2023-05-19T21:09:40.188Z,2.72
2023-05-19T21:17:15.376Z,2.03
2023-05-19T21:24:49.274Z,1.80
2023-05-19T21:32:24.682Z,1.95
2023-05-19T21:39:58.804Z,2.50
2023-05-19T21:47:34.078Z,2.15
2023-05-19T21:55:09.876Z,2.67
2023-05-19T22:02:45.231Z,2.65
2023-05-19T22:10:19.612Z,2.40
2023-05-19T22:17:54.892Z,2.50
2023-05-19T22:25:28.791Z,2.58
2023-05-19T22:33:03.938Z,2.85
2023-05-19T22:40:37.733Z,2.72
2023-05-19T22:48:12.783Z,2.17
2023-05-19T23:03:21.830Z,2.33
2023-05-19T23:11:00.847Z,2.60
2023-05-19T23:18:36.122Z,2.90
2023-05-19T23:26:09.999Z,2.92
2023-05-19T23:33:45.177Z,2.85
2023-05-19T23:41:18.888Z,2.55
2023-05-19T23:48:54.027Z,2.85
2023-05-19T23:56:27.864Z,3.33
